createdAt,value
2022-10-23T00:03:50.660Z,7.90
2022-10-23T00:10:39.539Z,6.60
2022-10-23T00:17:10.375Z,5.90
2022-10-23T00:23:36.459Z,6.30
2022-10-23T00:30:00.895Z,5.20
2022-10-23T00:36:24.381Z,5.90
2022-10-23T00:42:47.365Z,5.00
2022-10-23T00:49:19.101Z,6.40
2022-10-23T00:56:00.510Z,5.50
2022-10-23T01:02:30.434Z,5.50
2022-10-23T01:09:11.571Z,5.60
2022-10-23T01:23:00.357Z,5.10
2022-10-23T01:29:38.882Z,4.00
2022-10-23T01:36:04.589Z,5.10
2022-10-23T01:42:40.360Z,4.30
2022-10-23T01:49:10.771Z,6.00
2022-10-23T01:55:35.700Z,5.20
2022-10-23T02:01:52.580Z,6.00
2022-10-23T02:08:04.625Z,4.10
2022-10-23T02:14:24.499Z,5.90
2022-10-23T02:20:39.764Z,4.30
2022-10-23T02:27:13.845Z,5.00
2022-10-23T02:33:16.628Z,4.60
2022-10-23T02:39:46.494Z,5.10
2022-10-23T02:46:33.784Z,4.60
2022-10-23T02:53:20.329Z,4.40
2022-10-23T02:59:47.374Z,5.20
2022-10-23T03:06:22.062Z,4.80
2022-10-23T03:12:48.337Z,4.70
2022-10-23T03:25:57.542Z,4.30
2022-10-23T03:32:26.785Z,4.40
2022-10-23T03:52:00.580Z,3.90
2022-10-23T03:58:25.119Z,4.50
2022-10-23T04:11:38.420Z,4.30
2022-10-23T04:17:47.490Z,4.60
2022-10-23T04:30:47.890Z,4.00
2022-10-23T04:36:56.591Z,4.10
2022-10-23T04:43:26.016Z,4.90
2022-10-23T04:50:13.401Z,3.80
2022-10-23T04:56:37.044Z,3.90
2022-10-23T05:03:02.876Z,3.40
2022-10-23T05:09:31.280Z,4.60
2022-10-23T05:16:12.498Z,3.90
2022-10-23T05:22:31.591Z,4.20
2022-10-23T05:28:48.457Z,3.70
2022-10-23T05:35:13.929Z,4.60
2022-10-23T05:41:20.648Z,5.70
2022-10-23T05:47:50.723Z,3.50
2022-10-23T05:54:11.549Z,5.20
2022-10-23T06:00:40.739Z,3.50
2022-10-23T06:07:05.131Z,4.30
2022-10-23T06:13:36.069Z,4.00
2022-10-23T06:26:42.256Z,3.80
2022-10-23T06:32:52.571Z,7.70
2022-10-23T06:39:26.133Z,6.40
2022-10-23T06:45:49.379Z,7.50
2022-10-23T06:52:14.441Z,4.20
2022-10-23T06:59:05.680Z,5.50
2022-10-23T07:05:29.898Z,4.20
2022-10-23T07:11:57.399Z,6.00
2022-10-23T07:18:17.033Z,6.80
2022-10-23T07:24:40.529Z,7.50
2022-10-23T07:31:00.174Z,7.30
2022-10-23T07:37:36.971Z,4.50
2022-10-23T07:44:03.455Z,4.50
2022-10-23T07:50:35.427Z,5.90
2022-10-23T07:57:00.269Z,4.90
2022-10-23T08:03:24.386Z,4.90
2022-10-23T08:09:56.599Z,3.70
2022-10-23T08:16:26.721Z,4.40
2022-10-23T08:22:58.647Z,4.80
2022-10-23T08:29:24.991Z,4.00
2022-10-23T08:35:49.178Z,6.00
2022-10-23T08:42:21.316Z,6.60
2022-10-23T08:48:44.728Z,7.70
2022-10-23T08:55:22.064Z,9.50
2022-10-23T09:02:02.255Z,11.60
2022-10-23T09:08:41.219Z,9.40
2022-10-23T09:15:22.580Z,8.90
2022-10-23T09:21:47.111Z,9.10
2022-10-23T09:28:20.658Z,7.80
2022-10-23T09:34:45.196Z,7.90
2022-10-23T09:41:13.873Z,9.10
2022-10-23T09:47:41.534Z,9.50
2022-10-23T10:00:13.622Z,9.30
2022-10-23T10:06:39.018Z,7.70
2022-10-23T10:13:25.283Z,9.50
2022-10-23T10:20:05.240Z,10.60
2022-10-23T10:26:37.893Z,8.60
2022-10-23T10:33:05.914Z,8.70
2022-10-23T10:39:35.279Z,6.50
2022-10-23T10:46:31.973Z,12.70
2022-10-23T10:53:01.776Z,7.60
2022-10-23T10:59:27.954Z,6.90
2022-10-23T11:05:54.842Z,5.40
2022-10-23T11:18:43.910Z,27.40
2022-10-23T11:25:04.892Z,17.90
2022-10-23T11:31:12.158Z,15.70
2022-10-23T11:37:32.615Z,16.00
2022-10-23T11:44:09.634Z,11.50
2022-10-23T11:57:34.059Z,10.80
2022-10-23T12:04:03.585Z,23.60
2022-10-23T12:10:46.791Z,15.60
2022-10-23T12:30:24.303Z,12.00
2022-10-23T12:43:16.149Z,10.30
2022-10-23T12:50:04.685Z,9.50
2022-10-23T12:56:37.743Z,13.80
2022-10-23T13:02:57.677Z,9.80
2022-10-23T13:09:27.930Z,11.00
2022-10-23T13:16:05.511Z,7.70
2022-10-23T13:36:06.123Z,7.60
2022-10-23T13:42:29.529Z,7.10
2022-10-23T13:48:49.259Z,6.70
2022-10-23T13:54:56.387Z,5.70
2022-10-23T14:01:16.650Z,7.70
2022-10-23T14:07:37.967Z,7.90
2022-10-23T14:13:43.242Z,7.40
2022-10-23T14:20:17.283Z,6.80
2022-10-23T14:26:44.839Z,7.80
2022-10-23T14:33:02.087Z,7.70
2022-10-23T14:39:38.079Z,8.80
2022-10-23T14:46:00.083Z,6.00
2022-10-23T14:52:25.338Z,5.40
2022-10-23T14:58:43.244Z,5.60
2022-10-23T15:05:08.527Z,6.70
2022-10-23T15:11:26.161Z,6.30
2022-10-23T15:17:54.596Z,5.90
2022-10-23T15:24:18.447Z,5.20
2022-10-23T15:30:43.602Z,6.80
2022-10-23T15:37:10.381Z,6.20
2022-10-23T15:43:23.491Z,6.40
2022-10-23T15:49:57.030Z,6.10
2022-10-23T15:56:15.919Z,7.30
2022-10-23T16:02:45.073Z,5.40
2022-10-23T16:09:11.704Z,6.90
2022-10-23T16:15:52.818Z,7.10
2022-10-23T16:28:40.081Z,6.50
2022-10-23T16:34:41.733Z,9.30
2022-10-23T16:40:48.818Z,7.60
2022-10-23T16:47:24.401Z,8.70
2022-10-23T17:00:29.846Z,10.70
2022-10-23T17:06:25.852Z,13.00
2022-10-23T17:12:24.641Z,12.60
2022-10-23T17:18:43.845Z,14.80
2022-10-23T17:31:33.857Z,16.70
2022-10-23T17:37:42.756Z,14.20
2022-10-23T17:43:40.923Z,16.40
2022-10-23T17:50:03.712Z,17.70
2022-10-23T17:56:29.094Z,19.20
2022-10-23T18:02:49.814Z,19.50
2022-10-23T18:08:58.741Z,17.70
2022-10-23T18:15:07.575Z,18.10
2022-10-23T18:21:33.311Z,18.10
2022-10-23T18:34:46.055Z,21.60
2022-10-23T18:41:21.551Z,19.70
2022-10-23T18:54:44.076Z,18.20
2022-10-23T19:01:02.077Z,18.00
2022-10-23T19:07:31.644Z,15.10
2022-10-23T19:13:55.832Z,16.20
2022-10-23T19:20:04.737Z,19.90
2022-10-23T19:26:04.900Z,14.70
2022-10-23T19:32:30.396Z,14.90
2022-10-23T19:38:54.718Z,16.00
2022-10-23T19:45:04.497Z,15.60
2022-10-23T19:51:31.281Z,14.10
2022-10-23T19:57:28.914Z,14.70
2022-10-23T20:04:04.578Z,13.30
2022-10-23T20:10:34.750Z,14.60
2022-10-23T20:16:43.925Z,13.10
2022-10-23T20:23:08.212Z,13.20
2022-10-23T20:29:32.536Z,15.60
2022-10-23T20:35:56.822Z,16.40
2022-10-23T20:42:21.045Z,13.30
2022-10-23T20:48:39.715Z,16.50
2022-10-23T20:55:05.445Z,14.90
2022-10-23T21:01:42.246Z,15.50
2022-10-23T21:14:38.868Z,13.50
2022-10-23T21:28:05.830Z,14.80
2022-10-23T21:34:31.894Z,13.40
2022-10-23T22:00:48.066Z,12.80
2022-10-23T22:07:11.699Z,13.50
2022-10-23T22:13:38.945Z,15.40
2022-10-23T22:20:03.442Z,12.10
2022-10-23T22:26:27.737Z,13.40
2022-10-23T22:32:52.753Z,12.80
2022-10-23T22:39:17.799Z,11.40
2022-10-23T22:45:43.981Z,10.60
2022-10-23T22:52:14.096Z,11.70
2022-10-23T22:58:40.465Z,10.70
2022-10-23T23:04:58.472Z,9.90
2022-10-23T23:11:22.687Z,11.00
2022-10-23T23:17:47.219Z,10.30
2022-10-23T23:24:18.505Z,11.50
2022-10-23T23:37:21.596Z,9.30
2022-10-23T23:43:46.609Z,10.00
2022-10-23T23:50:12.860Z,8.90
2022-10-23T23:56:38.331Z,9.20
